• Join FlightAware (Why Join?)
  • Login
  • US Flag GB Flag 
12:27 EDT


 

Airport Tracker/Info


-or-


 

Live Flight TrackerFlight Track Log ✈ N1218P ✈ 29-Apr-2013 ✈ KYNG - KHAO

Flight Track Log - Related Links

Times and Time Zones

All times are in EDT time to prevent confusion due to time zone crossing. See the N1218P flight status page for this flight to view local times or setup timezone preferences in your user account.

Time Position Orientation Groundspeed Altitude Reporting Facility
EDT Latitude Longitude Course Direction KTS MPH feet Rate Location/Type
15:46 41.1790 -80.8210 217° Southwest  Level FlightAware Approximate
15:46 41.1789 -80.8567 238° Southwest 110 127 3,700  Level Indianapolis Center
15:47 41.1586 -80.8577 246° West  Level FlightAware Approximate
15:47 41.1622 -80.8917 238° Southwest 110 127 4,200  Level Indianapolis Center
15:48 41.1433 -80.9002 242° Southwest  Level FlightAware Approximate
15:48 41.1472 -80.9250 239° Southwest 108 124 4,700  Level Indianapolis Center
15:49 41.1266 -80.9418 242° Southwest  Level FlightAware Approximate
15:49 41.1311 -80.9581 237° Southwest 106 122 5,100  Level Indianapolis Center
15:50 41.1091 -80.9828 238° Southwest  Level FlightAware Approximate
15:50 41.1156 -80.9908 238° Southwest 105 121 5,500  Level Indianapolis Center
15:51 41.0904 -81.0227 238° Southwest  Level FlightAware Approximate
15:51 41.1000 -81.0275 241° Southwest 108 124 5,900  Level Indianapolis Center
15:52 41.0819 -81.0628 236° Southwest 111 128 6,100 60 Climbing Indianapolis Center
15:53 41.0639 -81.1028 239° Southwest 118 136 6,100  Level Indianapolis Center
15:54 41.0419 -81.1508 239° Southwest 125 144 6,100  Level Indianapolis Center
15:55 41.0208 -81.1922 236° Southwest 130 150 6,100  Level Indianapolis Center
15:56 41.0019 -81.2339 239° Southwest 131 151 6,100  Level Indianapolis Center
15:57 40.9831 -81.2758 239° Southwest 131 151 6,100  Level Indianapolis Center
15:58 40.9642 -81.3161 238° Southwest 129 148 6,100  Level Indianapolis Center
15:59 40.9450 -81.3564 238° Southwest 129 148 6,100  Level Indianapolis Center
16:00 40.9258 -81.3964 238° Southwest 128 147 6,100  Level Indianapolis Center
16:01 40.9069 -81.4358 238° Southwest 127 146 6,100  Level Indianapolis Center
16:03 40.8853 -81.4839 239° Southwest 128 147 6,100  Level Indianapolis Center
16:04 40.8653 -81.5250 237° Southwest 130 150 6,100  Level Indianapolis Center
16:05 40.8467 -81.5650 238° Southwest 129 148 6,100  Level Indianapolis Center
16:06 40.8269 -81.6058 237° Southwest 129 148 6,100  Level Indianapolis Center
16:07 40.8067 -81.6469 237° Southwest 131 151 6,100  Level Indianapolis Center
16:08 40.7872 -81.6869 237° Southwest 130 150 6,100  Level Indianapolis Center
16:09 40.7681 -81.7275 238° Southwest 129 148 6,100  Level Indianapolis Center
16:10 40.7486 -81.7672 237° Southwest 128 147 6,100  Level Indianapolis Center
16:12 40.7086 -81.8536 239° Southwest 126 145 6,100  Level Indianapolis Center
16:13 40.6875 -81.8919 234° Southwest 127 146 6,100  Level Indianapolis Center
16:14 40.6689 -81.9344 240° Southwest 131 151 6,100  Level Indianapolis Center
16:15 40.6503 -81.9756 239° Southwest 130 150 6,100  Level Indianapolis Center
16:16 40.6303 -82.0114 234° Southwest 123 142 6,100  Level Indianapolis Center
16:17 40.6125 -82.0486 238° Southwest 119 137 6,100  Level Indianapolis Center
16:18 40.5956 -82.0878 240° Southwest 122 140 6,100  Level Indianapolis Center
16:19 40.5800 -82.1206 238° Southwest 125 144 6,100  Level Indianapolis Center
16:19 40.5758 -82.1267 228° Southwest 125 144 6,100  Level Indianapolis Center
16:20 40.5586 -82.1622 237° Southwest 126 145 6,100  Level Indianapolis Center
16:20 40.5525 -82.1714 229° Southwest 125 144 6,100  Level Indianapolis Center
16:21 40.5397 -82.2014 241° Southwest 128 147 6,100  Level Indianapolis Center
16:21 40.5344 -82.2111 234° Southwest 125 144 6,100  Level Indianapolis Center
16:22 40.5156 -82.2536 240° Southwest 128 147 6,100  Level Indianapolis Center
16:23 40.4944 -82.2897 232° Southwest 127 146 6,100  Level Indianapolis Center
16:24 40.4758 -82.3306 239° Southwest 128 147 6,100  Level Indianapolis Center
16:25 40.4583 -82.3681 238° Southwest 129 148 6,100  Level Indianapolis Center
16:26 40.4392 -82.4072 237° Southwest 130 150 6,100  Level Indianapolis Center
16:27 40.4200 -82.4433 235° Southwest 130 150 6,100  Level Indianapolis Center
16:27 40.4169 -82.4503 240° Southwest 130 150 6,100  Level Indianapolis Center
16:28 40.4008 -82.4825 237° Southwest 130 150 6,100  Level Indianapolis Center
16:28 40.3942 -82.4975 240° Southwest 129 148 6,100  Level Indianapolis Center
16:29 40.3817 -82.5214 236° Southwest 129 148 6,100  Level Indianapolis Center
16:29 40.3750 -82.5364 240° Southwest 127 146 6,100  Level Indianapolis Center
16:30 40.3558 -82.5761 238° Southwest 127 146 6,100  Level Indianapolis Center
16:31 40.3456 -82.5967 237° Southwest 126 145 6,100  Level Indianapolis Center
16:31 40.3361 -82.6150 236° Southwest 127 146 6,100  Level Indianapolis Center
16:32 40.3239 -82.6381 235° Southwest 129 148 6,100  Level Indianapolis Center
16:32 40.3161 -82.6553 239° Southwest 129 148 6,100  Level Indianapolis Center
16:33 40.3044 -82.6797 238° Southwest 133 153 6,100  Level Indianapolis Center
16:33 40.2956 -82.6969 236° Southwest 134 154 6,100  Level Indianapolis Center
16:34 40.2828 -82.7236 238° Southwest 135 155 6,100  Level Indianapolis Center
16:35 40.2761 -82.7383 239° Southwest 133 153 6,100  Level Indianapolis Center
16:35 40.2611 -82.7650 234° Southwest 128 147 6,100  Level Indianapolis Center
16:36 40.2547 -82.7753 231° Southwest 127 146 6,100  Level Indianapolis Center
16:36 40.2464 -82.7989 245° Southwest 127 146 6,100  Level Indianapolis Center
16:37 40.2356 -82.8178 233° Southwest 127 146 6,100 60 Level Indianapolis Center
16:37 40.2250 -82.8400 238° Southwest 127 146 6,200  Climbing Indianapolis Center
16:38 40.2133 -82.8606 233° Southwest 126 145 6,100 -120 Descending Indianapolis Center
16:38 40.2056 -82.8789 241° Southwest 131 151 6,100  Level Indianapolis Center
16:39 40.1922 -82.9044 236° Southwest 132 152 6,100  Level Indianapolis Center
16:40 40.1722 -82.9442 237° Southwest 129 148 6,100  Level Indianapolis Center
16:41 40.1453 -82.9975 237° Southwest 128 147 6,100  Level Indianapolis Center
16:42 40.1325 -83.0233 237° Southwest 129 148 6,100  Level Indianapolis Center
16:42 40.1256 -83.0389 240° Southwest 129 148 6,100  Level Indianapolis Center
16:43 40.1139 -83.0636 238° Southwest 130 150 6,100  Level Indianapolis Center
16:43 40.1064 -83.0775 235° Southwest 129 148 6,100  Level Indianapolis Center
16:44 40.0939 -83.1031 237° Southwest 129 148 6,100  Level Indianapolis Center
16:45 40.0731 -83.1425 235° Southwest 130 150 6,100 60 Level Indianapolis Center
16:45 40.0647 -83.1625 241° Southwest 130 150 6,200 -120 Climbing Indianapolis Center
16:46 40.0508 -83.1894 236° Southwest 129 148 6,000 -300 Descending Indianapolis Center
16:47 40.0283 -83.2333 236° Southwest 137 158 5,700 -360 Descending Indianapolis Center
16:47 40.0211 -83.2472 236° Southwest 143 165 5,600 -300 Descending Indianapolis Center
16:48 40.0061 -83.2772 237° Southwest 142 163 5,400 -360 Descending Indianapolis Center
16:49 39.9842 -83.3211 237° Southwest 142 163 5,000 -420 Descending Indianapolis Center
16:49 39.9772 -83.3372 241° Southwest 145 167 4,900 -420 Descending Indianapolis Center
16:50 39.9617 -83.3661 235° Southwest 145 167 4,600 -360 Descending Indianapolis Center
16:51 39.9389 -83.4111 237° Southwest 147 169 4,300 -300 Descending Indianapolis Center
16:52 39.9156 -83.4561 236° Southwest 148 170 4,100 -120 Descending Indianapolis Center
16:53 39.8917 -83.5064 238° Southwest 137 158 4,100  Level Indianapolis Center
16:54 39.8700 -83.5444 233° Southwest 136 157 4,100  Level Indianapolis Center
16:55 39.8500 -83.5856 238° Southwest 136 157 4,200 -120 Climbing Indianapolis Center
16:56 39.8258 -83.6342 237° Southwest 163 188 3,900 -300 Descending Indianapolis Center
16:57 39.8061 -83.6717 236° Southwest 142 163 3,700 -360 Descending Indianapolis Center
16:58 39.7817 -83.7208 237° Southwest 149 171 3,300 -300 Descending Indianapolis Center
16:59 39.7594 -83.7642 236° Southwest 144 166 3,200 -60 Descending Indianapolis Center
17:00 39.7375 -83.8050 235° Southwest 131 151 3,200  Level Indianapolis Center
17:01 39.7203 -83.8408 238° Southwest 129 148 3,200  Level Indianapolis Center
17:02 39.6983 -83.8814 235° Southwest 131 151 3,200  Level Indianapolis Center
17:03 39.6761 -83.9247 236° Southwest 133 153 3,200  Level Indianapolis Center
17:04 39.6583 -83.9656 241° Southwest 133 153 3,200 -120 Level Indianapolis Center
17:04 39.6547 -83.9675 203° Southwest 133 153 3,100  Descending Indianapolis Center
17:05 39.6367 -84.0008 235° Southwest 126 145 3,200  Climbing Indianapolis Center
17:06 39.6314 -84.0122 239° Southwest 130 150 3,100  Descending Indianapolis Center
17:06 39.6150 -84.0386 231° Southwest 128 147 3,200 60 Climbing Indianapolis Center
17:07 39.6108 -84.0500 245° Southwest 128 147 3,200  Level Indianapolis Center
17:07 39.5925 -84.0844 235° Southwest 130 150 3,200  Level Indianapolis Center
17:08 39.5753 -84.1175 236° Southwest 132 152 3,200  Level Indianapolis Center
17:09 39.5531 -84.1606 236° Southwest 131 151 3,200  Level Indianapolis Center